createdAt,value
2023-07-08T00:00:13.014Z,101883.00
2023-07-08T00:00:34.721Z,101887.56
2023-07-08T00:01:13.753Z,101883.00
2023-07-08T00:01:32.515Z,101881.31
2023-07-08T00:01:46.805Z,101881.31
2023-07-08T00:01:59.991Z,101887.69
2023-07-08T00:02:15.048Z,101886.84
2023-07-08T00:02:27.883Z,101883.31
2023-07-08T00:02:41.430Z,101883.31
2023-07-08T00:02:54.272Z,101881.56
2023-07-08T00:03:08.052Z,101881.56
2023-07-08T00:03:22.185Z,101880.72
2023-07-08T00:03:34.943Z,101882.56
2023-07-08T00:03:49.701Z,101879.00
2023-07-08T00:04:05.175Z,101883.53
2023-07-08T00:04:18.075Z,101883.53
2023-07-08T00:04:30.768Z,101882.56
2023-07-08T00:04:43.899Z,101880.84
2023-07-08T00:04:57.985Z,101883.53
2023-07-08T00:05:12.006Z,101884.56
2023-07-08T00:05:28.374Z,101884.56
2023-07-08T00:05:45.942Z,101882.81
2023-07-08T00:05:58.604Z,101885.53
2023-07-08T00:06:18.204Z,101883.00
2023-07-08T00:06:30.833Z,101875.72
2023-07-08T00:06:44.265Z,101883.84
2023-07-08T00:06:57.614Z,101882.13
2023-07-08T00:07:14.293Z,101882.13
2023-07-08T00:07:28.984Z,101880.44
2023-07-08T00:07:42.894Z,101885.84
2023-07-08T00:07:56.040Z,101885.84
2023-07-08T00:08:12.820Z,101886.84
2023-07-08T00:08:25.610Z,101881.44
2023-07-08T00:08:39.037Z,101877.00
2023-07-08T00:08:52.672Z,101881.56
2023-07-08T00:09:13.231Z,101878.72
2023-07-08T00:09:27.783Z,101874.31
2023-07-08T00:09:42.046Z,101882.56
2023-07-08T00:09:55.408Z,101879.84
2023-07-08T00:10:21.907Z,101879.00
2023-07-08T00:10:34.853Z,101876.28
2023-07-08T00:10:48.313Z,101885.25
2023-07-08T00:11:02.700Z,101881.72
2023-07-08T00:11:18.578Z,101876.28
2023-07-08T00:11:31.247Z,101877.31
2023-07-08T00:11:45.208Z,101878.16
2023-07-08T00:11:58.447Z,101881.00
2023-07-08T00:12:12.586Z,101874.59
2023-07-08T00:12:28.885Z,101875.44
2023-07-08T00:12:42.725Z,101880.88
2023-07-08T00:12:59.341Z,101877.31
2023-07-08T00:13:13.910Z,101878.16
2023-07-08T00:13:27.039Z,101883.56
2023-07-08T00:13:41.964Z,101882.72
2023-07-08T00:13:54.981Z,101877.31
2023-07-08T00:14:08.336Z,101878.16
2023-07-08T00:14:21.674Z,101883.69
2023-07-08T00:14:34.337Z,101878.28
2023-07-08T00:14:46.953Z,101878.28
2023-07-08T00:15:01.000Z,101870.16
2023-07-08T00:15:13.705Z,101878.28
2023-07-08T00:15:28.765Z,101884.72
2023-07-08T00:15:41.739Z,101881.00
2023-07-08T00:15:54.294Z,101880.16
2023-07-08T00:16:11.415Z,101881.00
2023-07-08T00:16:26.428Z,101879.13
2023-07-08T00:16:39.313Z,101883.84
2023-07-08T00:16:52.793Z,101883.69
2023-07-08T00:17:11.452Z,101884.72
2023-07-08T00:17:24.093Z,101878.44
2023-07-08T00:17:37.127Z,101880.16
2023-07-08T00:17:49.822Z,101876.59
2023-07-08T00:18:10.842Z,101882.84
2023-07-08T00:18:23.378Z,101879.31
2023-07-08T00:18:35.913Z,101877.59
2023-07-08T00:18:49.890Z,101881.13
2023-07-08T00:19:02.945Z,101876.59
2023-07-08T00:19:20.379Z,101882.00
2023-07-08T00:19:32.946Z,101885.69
2023-07-08T00:19:45.511Z,101879.44
2023-07-08T00:19:58.069Z,101877.59
2023-07-08T00:20:15.080Z,101875.88
2023-07-08T00:20:34.509Z,101882.16
2023-07-08T00:20:49.477Z,101880.44
2023-07-08T00:21:02.284Z,101880.44
2023-07-08T00:21:17.320Z,101886.72
2023-07-08T00:21:29.976Z,101876.16
2023-07-08T00:21:42.605Z,101877.88
2023-07-08T00:21:55.174Z,101880.59
2023-07-08T00:22:15.211Z,101872.59
2023-07-08T00:22:28.806Z,101876.16
2023-07-08T00:22:42.219Z,101879.88
2023-07-08T00:22:54.771Z,101880.72
2023-07-08T00:23:10.059Z,101878.16
2023-07-08T00:23:23.180Z,101877.31
2023-07-08T00:23:37.130Z,101883.56
2023-07-08T00:23:51.158Z,101880.84
2023-07-08T00:24:03.981Z,101881.88
2023-07-08T00:24:17.572Z,101875.59
2023-07-08T00:24:30.097Z,101876.59
2023-07-08T00:24:43.745Z,101875.75
2023-07-08T00:24:56.331Z,101878.44
2023-07-08T00:25:11.082Z,101877.44
2023-07-08T00:25:25.058Z,101873.88
2023-07-08T00:25:38.195Z,101873.03
2023-07-08T00:25:51.220Z,101874.91
2023-07-08T00:26:11.450Z,101875.03
2023-07-08T00:26:26.556Z,101869.63
2023-07-08T00:26:39.368Z,101875.03
2023-07-08T00:26:52.171Z,101873.34
2023-07-08T00:27:05.218Z,101876.03
2023-07-08T00:27:18.315Z,101870.75
2023-07-08T00:27:30.860Z,101871.63
2023-07-08T00:27:43.682Z,101874.44
2023-07-08T00:27:57.299Z,101873.59
2023-07-08T00:28:10.733Z,101878.31
2023-07-08T00:28:23.303Z,101875.59
2023-07-08T00:28:35.860Z,101877.47
2023-07-08T00:28:48.422Z,101867.66
2023-07-08T00:29:01.268Z,101874.03
2023-07-08T00:29:17.628Z,101873.19
2023-07-08T00:29:30.178Z,101872.34
2023-07-08T00:29:43.781Z,101873.31
2023-07-08T00:29:56.330Z,101867.91
2023-07-08T00:30:20.419Z,101872.47
2023-07-08T00:30:33.757Z,101875.19
2023-07-08T00:30:46.738Z,101874.34
2023-07-08T00:30:59.859Z,101873.47
2023-07-08T00:31:12.688Z,101872.47
2023-07-08T00:31:27.226Z,101870.75
2023-07-08T00:31:41.265Z,101866.34
2023-07-08T00:31:53.814Z,101869.06
2023-07-08T00:32:11.874Z,101871.75
2023-07-08T00:32:24.553Z,101869.06
2023-07-08T00:32:43.046Z,101861.91
2023-07-08T00:32:56.860Z,101866.47
2023-07-08T00:33:09.487Z,101868.34
2023-07-08T00:33:23.035Z,101874.78
2023-07-08T00:33:35.828Z,101872.91
2023-07-08T00:33:48.373Z,101867.63
2023-07-08T00:34:04.341Z,101867.63
2023-07-08T00:34:16.998Z,101869.34
2023-07-08T00:34:29.571Z,101873.03
2023-07-08T00:34:42.772Z,101872.19
2023-07-08T00:34:55.376Z,101865.06
2023-07-08T00:35:08.599Z,101869.63
2023-07-08T00:35:24.505Z,101864.22
2023-07-08T00:35:38.622Z,101870.47
2023-07-08T00:35:51.184Z,101867.06
2023-07-08T00:36:11.785Z,101862.53
2023-07-08T00:36:26.154Z,101867.94
2023-07-08T00:36:38.797Z,101864.34
2023-07-08T00:36:52.343Z,101860.78
2023-07-08T00:37:06.334Z,101877.03
2023-07-08T00:37:18.902Z,101863.63
2023-07-08T00:37:31.689Z,101866.34
2023-07-08T00:37:44.301Z,101865.50
2023-07-08T00:38:02.288Z,101862.78
2023-07-08T00:38:28.096Z,101870.06
2023-07-08T00:38:45.597Z,101872.75
2023-07-08T00:38:59.511Z,101871.06
2023-07-08T00:39:15.749Z,101859.38
2023-07-08T00:39:28.323Z,101859.53
2023-07-08T00:39:41.058Z,101864.78
2023-07-08T00:39:53.736Z,101868.50
2023-07-08T00:40:15.297Z,101863.09
2023-07-08T00:40:31.073Z,101864.06
2023-07-08T00:40:52.854Z,101864.06
2023-07-08T00:41:12.304Z,101857.94
2023-07-08T00:41:28.757Z,101864.06
2023-07-08T00:41:43.609Z,101869.63
2023-07-08T00:41:56.712Z,101869.63
2023-07-08T00:42:25.700Z,101866.06
2023-07-08T00:42:39.245Z,101861.66
2023-07-08T00:42:53.610Z,101863.34
2023-07-08T00:43:09.238Z,101861.78
2023-07-08T00:43:29.699Z,101870.75
2023-07-08T00:43:47.175Z,101864.50
2023-07-08T00:44:00.908Z,101864.66
2023-07-08T00:44:13.761Z,101867.34
2023-07-08T00:44:26.329Z,101861.06
2023-07-08T00:44:40.857Z,101865.63
2023-07-08T00:44:53.805Z,101864.78
2023-07-08T00:45:19.540Z,101864.91
2023-07-08T00:45:53.424Z,101861.38
2023-07-08T00:46:24.853Z,101867.75
2023-07-08T00:46:48.440Z,101868.78
2023-07-08T00:47:05.452Z,101867.91
2023-07-08T00:47:18.724Z,101866.19
2023-07-08T00:47:31.880Z,101863.50
2023-07-08T00:47:44.776Z,101868.91
2023-07-08T00:48:04.942Z,101870.75
2023-07-08T00:48:24.622Z,101862.78
2023-07-08T00:48:38.243Z,101861.94
2023-07-08T00:48:54.205Z,101860.06
2023-07-08T00:49:22.391Z,101860.06
2023-07-08T00:49:40.326Z,101866.50
2023-07-08T00:49:58.265Z,101864.63
2023-07-08T00:50:12.702Z,101861.06
2023-07-08T00:50:25.265Z,101866.50
2023-07-08T00:50:37.810Z,101861.06
2023-07-08T00:50:51.152Z,101861.06
2023-07-08T00:51:03.765Z,101865.66
2023-07-08T00:51:20.542Z,101868.34
2023-07-08T00:51:33.504Z,101865.66
2023-07-08T00:51:46.037Z,101869.19
2023-07-08T00:52:20.548Z,101868.47
2023-07-08T00:52:34.086Z,101863.91
2023-07-08T00:52:46.750Z,101863.06
2023-07-08T00:53:33.153Z,101869.63
2023-07-08T00:53:45.668Z,101863.34
2023-07-08T00:53:58.271Z,101863.34
2023-07-08T00:54:13.161Z,101858.94
2023-07-08T00:54:26.675Z,101872.47
2023-07-08T00:54:39.189Z,101864.34
2023-07-08T00:54:53.614Z,101867.03
2023-07-08T00:55:08.848Z,101863.63
2023-07-08T00:55:21.776Z,101868.06
2023-07-08T00:55:35.806Z,101864.47
2023-07-08T00:55:48.496Z,101864.63
2023-07-08T00:56:03.480Z,101873.59
2023-07-08T00:56:20.944Z,101867.34
2023-07-08T00:56:39.994Z,101860.19
2023-07-08T00:56:55.705Z,101861.22
2023-07-08T00:57:08.401Z,101863.91
2023-07-08T00:57:24.401Z,101870.31
2023-07-08T00:57:40.320Z,101864.91
2023-07-08T00:57:53.853Z,101866.75
2023-07-08T00:58:06.394Z,101865.03
2023-07-08T00:58:22.905Z,101865.91
2023-07-08T00:58:42.384Z,101864.19
2023-07-08T00:58:58.564Z,101867.91
2023-07-08T00:59:16.938Z,101866.88
2023-07-08T00:59:35.242Z,101867.91
2023-07-08T00:59:55.424Z,101860.75
2023-07-08T01:00:11.388Z,101866.16
2023-07-08T01:00:24.077Z,101859.91
2023-07-08T01:00:36.583Z,101865.31
2023-07-08T01:00:51.093Z,101861.78
2023-07-08T01:01:07.231Z,101860.91
2023-07-08T01:01:20.128Z,101857.34
2023-07-08T01:01:37.173Z,101863.75
2023-07-08T01:01:50.646Z,101860.19
2023-07-08T01:02:07.370Z,101861.06
2023-07-08T01:02:23.154Z,101867.44
2023-07-08T01:02:39.408Z,101860.34
2023-07-08T01:02:57.781Z,101855.91
2023-07-08T01:03:10.553Z,101861.31
2023-07-08T01:03:25.027Z,101855.91
2023-07-08T01:03:47.808Z,101857.03
2023-07-08T01:04:05.385Z,101853.50
2023-07-08T01:04:21.496Z,101858.06
2023-07-08T01:04:43.255Z,101858.19
2023-07-08T01:05:05.610Z,101853.78
2023-07-08T01:05:21.000Z,101860.16
2023-07-08T01:05:35.716Z,101854.91
2023-07-08T01:05:49.971Z,101857.59
2023-07-08T01:06:02.558Z,101856.75
2023-07-08T01:06:15.365Z,101855.91
2023-07-08T01:06:32.548Z,101853.19
2023-07-08T01:06:48.357Z,101855.91
2023-07-08T01:07:04.597Z,101854.22
2023-07-08T01:07:22.526Z,101851.63
2023-07-08T01:07:37.056Z,101849.66
2023-07-08T01:07:52.911Z,101854.22
2023-07-08T01:08:07.433Z,101854.34
2023-07-08T01:08:20.113Z,101848.94
2023-07-08T01:08:34.030Z,101853.31
2023-07-08T01:08:47.969Z,101848.09
2023-07-08T01:09:03.706Z,101849.91
2023-07-08T01:09:17.007Z,101847.19
2023-07-08T01:09:34.634Z,101849.06
2023-07-08T01:09:47.587Z,101846.47
2023-07-08T01:10:07.395Z,101850.06
2023-07-08T01:10:27.870Z,101844.78
2023-07-08T01:10:47.229Z,101848.47
2023-07-08T01:11:03.095Z,101847.63
2023-07-08T01:11:16.874Z,101849.47
2023-07-08T01:11:30.255Z,101844.06
2023-07-08T01:11:43.693Z,101845.09
2023-07-08T01:11:58.064Z,101847.78
2023-07-08T01:12:15.449Z,101848.75
2023-07-08T01:12:31.836Z,101850.63
2023-07-08T01:12:49.344Z,101847.06
2023-07-08T01:13:05.877Z,101851.47
2023-07-08T01:13:20.533Z,101848.03
2023-07-08T01:13:38.671Z,101850.75
2023-07-08T01:13:52.610Z,101844.59
2023-07-08T01:14:08.792Z,101848.13
2023-07-08T01:14:23.015Z,101848.31
2023-07-08T01:14:39.592Z,101851.00
2023-07-08T01:14:56.073Z,101844.72
2023-07-08T01:15:10.834Z,101850.13
2023-07-08T01:15:26.853Z,101844.88
2023-07-08T01:15:42.829Z,101840.44
2023-07-08T01:15:56.177Z,101844.03
2023-07-08T01:16:10.682Z,101848.56
2023-07-08T01:16:23.652Z,101844.16
2023-07-08T01:16:36.638Z,101845.84
2023-07-08T01:16:51.160Z,101844.16
2023-07-08T01:17:04.142Z,101846.88
2023-07-08T01:17:16.739Z,101846.88
2023-07-08T01:17:33.609Z,101844.16
2023-07-08T01:17:46.964Z,101848.72
2023-07-08T01:17:59.975Z,101847.84
2023-07-08T01:18:17.484Z,101848.84
2023-07-08T01:18:31.407Z,101846.16
2023-07-08T01:18:44.156Z,101846.16
2023-07-08T01:18:57.145Z,101845.28
2023-07-08T01:19:17.045Z,101847.13
2023-07-08T01:19:33.482Z,101841.72
2023-07-08T01:19:46.188Z,101840.03
2023-07-08T01:19:59.474Z,101850.84
2023-07-08T01:20:14.080Z,101850.84
2023-07-08T01:20:27.860Z,101840.03
2023-07-08T01:20:41.023Z,101845.44
2023-07-08T01:20:57.402Z,101847.28
2023-07-08T01:21:31.118Z,101844.56
2023-07-08T01:21:48.046Z,101846.41
2023-07-08T01:22:01.259Z,101846.41
2023-07-08T01:22:13.927Z,101847.28
2023-07-08T01:22:33.281Z,101844.72
2023-07-08T01:22:46.233Z,101851.81
2023-07-08T01:22:58.839Z,101843.84
2023-07-08T01:23:12.178Z,101849.25
2023-07-08T01:23:25.530Z,101845.72
2023-07-08T01:23:38.494Z,101852.81
2023-07-08T01:23:51.382Z,101847.53
2023-07-08T01:24:06.900Z,101847.69
2023-07-08T01:24:20.460Z,101850.41
2023-07-08T01:24:35.970Z,101844.13
2023-07-08T01:24:48.525Z,101842.41
2023-07-08T01:25:04.408Z,101844.28
2023-07-08T01:25:17.209Z,101846.97
2023-07-08T01:25:29.849Z,101844.28
2023-07-08T01:25:45.729Z,101846.09
2023-07-08T01:25:58.411Z,101843.41
2023-07-08T01:26:11.952Z,101847.09
2023-07-08T01:26:26.948Z,101848.97
2023-07-08T01:26:43.058Z,101851.66
2023-07-08T01:26:55.823Z,101840.97
2023-07-08T01:27:12.973Z,101848.06
2023-07-08T01:27:25.608Z,101847.22
2023-07-08T01:27:40.483Z,101846.38
2023-07-08T01:27:56.841Z,101851.78
2023-07-08T01:28:09.515Z,101848.25
2023-07-08T01:28:23.387Z,101842.00
2023-07-08T01:28:36.840Z,101842.13
2023-07-08T01:28:49.412Z,101844.81
2023-07-08T01:29:03.816Z,101844.81
2023-07-08T01:29:16.995Z,101841.28
2023-07-08T01:29:29.744Z,101843.09
2023-07-08T01:29:42.393Z,101853.91
2023-07-08T01:29:55.546Z,101844.94
2023-07-08T01:30:09.181Z,101844.09
2023-07-08T01:30:23.065Z,101845.06
2023-07-08T01:30:36.574Z,101840.69
2023-07-08T01:30:50.491Z,101843.38
2023-07-08T01:31:05.782Z,101841.66
2023-07-08T01:31:20.421Z,101846.38
2023-07-08T01:31:33.461Z,101849.06
2023-07-08T01:31:50.245Z,101845.47
2023-07-08T01:32:04.443Z,101847.34
2023-07-08T01:32:19.316Z,101842.94
2023-07-08T01:32:34.033Z,101846.63
2023-07-08T01:32:50.625Z,101845.91
2023-07-08T01:33:06.640Z,101850.44
2023-07-08T01:33:22.903Z,101842.47
2023-07-08T01:33:36.517Z,101846.03
2023-07-08T01:33:49.230Z,101845.19
2023-07-08T01:34:01.894Z,101848.88
2023-07-08T01:34:14.478Z,101845.34
2023-07-08T01:34:27.073Z,101842.63
2023-07-08T01:34:39.587Z,101843.59
2023-07-08T01:35:01.305Z,101845.47
2023-07-08T01:35:14.719Z,101850.88
2023-07-08T01:35:28.896Z,101845.47
2023-07-08T01:35:41.736Z,101846.44
2023-07-08T01:35:54.478Z,101845.59
2023-07-08T01:36:11.499Z,101849.28
2023-07-08T01:36:26.384Z,101847.44
2023-07-08T01:36:44.932Z,101850.13
2023-07-08T01:37:01.375Z,101843.00
2023-07-08T01:37:15.424Z,101851.13
2023-07-08T01:37:35.344Z,101852.97
2023-07-08T01:37:52.604Z,101849.41
2023-07-08T01:38:09.879Z,101844.03
2023-07-08T01:38:26.187Z,101849.41
2023-07-08T01:38:40.564Z,101851.13
2023-07-08T01:38:53.150Z,101841.31
2023-07-08T01:39:05.746Z,101841.31
2023-07-08T01:39:20.787Z,101845.00
2023-07-08T01:39:34.430Z,101848.56
2023-07-08T01:39:47.245Z,101842.28
2023-07-08T01:40:16.305Z,101836.88
2023-07-08T01:40:32.108Z,101851.41
2023-07-08T01:40:51.001Z,101844.16
2023-07-08T01:41:04.661Z,101840.59
2023-07-08T01:41:18.048Z,101839.59
2023-07-08T01:41:30.577Z,101842.28
2023-07-08T01:41:43.078Z,101845.00
2023-07-08T01:41:57.168Z,101844.16
2023-07-08T01:42:09.669Z,101835.19
2023-07-08T01:42:22.311Z,101839.59
2023-07-08T01:42:35.051Z,101842.28
2023-07-08T01:42:48.626Z,101839.59
2023-07-08T01:43:02.201Z,101847.69
2023-07-08T01:43:14.718Z,101838.75
2023-07-08T01:43:27.264Z,101844.16
2023-07-08T01:43:39.850Z,101845.00
2023-07-08T01:43:52.712Z,101842.28
2023-07-08T01:44:05.552Z,101842.28
2023-07-08T01:44:30.381Z,101842.28
2023-07-08T01:44:43.889Z,101841.44
2023-07-08T01:44:56.498Z,101840.59
2023-07-08T01:45:13.009Z,101843.28
2023-07-08T01:45:27.862Z,101844.31
2023-07-08T01:45:42.319Z,101843.41
2023-07-08T01:45:55.933Z,101841.59
2023-07-08T01:46:15.073Z,101831.78
2023-07-08T01:46:29.287Z,101847.13
2023-07-08T01:46:42.152Z,101840.00
2023-07-08T01:46:58.230Z,101839.16
2023-07-08T01:47:16.210Z,101833.75
2023-07-08T01:47:28.886Z,101844.69
2023-07-08T01:47:44.669Z,101839.44
2023-07-08T01:48:02.174Z,101836.00
2023-07-08T01:48:18.526Z,101844.97
2023-07-08T01:48:36.152Z,101841.41
2023-07-08T01:48:53.611Z,101845.09
2023-07-08T01:49:06.255Z,101847.78
2023-07-08T01:49:20.026Z,101843.38
2023-07-08T01:49:34.805Z,101844.25
2023-07-08T01:49:48.855Z,101841.66
2023-07-08T01:50:01.507Z,101843.50
2023-07-08T01:50:14.677Z,101841.66
2023-07-08T01:50:29.836Z,101841.66
2023-07-08T01:50:46.921Z,101840.81
2023-07-08T01:51:03.106Z,101846.22
2023-07-08T01:51:16.108Z,101842.66
2023-07-08T01:51:29.202Z,101834.69
2023-07-08T01:51:41.790Z,101842.78
2023-07-08T01:51:54.671Z,101836.53
2023-07-08T01:52:10.803Z,101841.09
2023-07-08T01:52:23.405Z,101834.81
2023-07-08T01:52:36.788Z,101842.91
2023-07-08T01:52:51.388Z,101828.56
2023-07-08T01:53:10.018Z,101838.53
2023-07-08T01:53:29.107Z,101839.38
2023-07-08T01:53:44.789Z,101836.81
2023-07-08T01:53:57.324Z,101844.94
2023-07-08T01:54:09.852Z,101840.50
2023-07-08T01:54:22.557Z,101833.41
2023-07-08T01:54:35.173Z,101843.31
2023-07-08T01:54:56.005Z,101842.47
2023-07-08T01:55:09.461Z,101836.22
2023-07-08T01:55:24.426Z,101838.06
2023-07-08T01:55:37.051Z,101841.75
2023-07-08T01:55:50.610Z,101841.88
2023-07-08T01:56:04.137Z,101841.03
2023-07-08T01:56:17.020Z,101841.03
2023-07-08T01:56:30.026Z,101833.94
2023-07-08T01:56:42.649Z,101839.34
2023-07-08T01:56:58.638Z,101840.31
2023-07-08T01:57:11.195Z,101837.59
2023-07-08T01:57:24.712Z,101841.31
2023-07-08T01:57:37.365Z,101835.19
2023-07-08T01:57:52.627Z,101839.75
2023-07-08T01:58:05.190Z,101840.59
2023-07-08T01:58:17.812Z,101846.97
2023-07-08T01:58:30.493Z,101837.16
2023-07-08T01:58:43.571Z,101838.13
2023-07-08T01:58:56.102Z,101838.13
2023-07-08T01:59:09.661Z,101838.28
2023-07-08T01:59:22.333Z,101838.28
2023-07-08T01:59:34.892Z,101841.84
2023-07-08T01:59:48.661Z,101846.38
2023-07-08T02:00:01.240Z,101836.44
2023-07-08T02:00:14.704Z,101840.13
2023-07-08T02:00:27.313Z,101834.75
2023-07-08T02:00:39.997Z,101841.00
2023-07-08T02:00:52.728Z,101840.13
2023-07-08T02:01:08.037Z,101839.13
2023-07-08T02:01:20.689Z,101845.53
2023-07-08T02:01:33.360Z,101840.13
2023-07-08T02:01:46.082Z,101841.97
2023-07-08T02:01:59.116Z,101845.53
2023-07-08T02:02:11.882Z,101841.13
2023-07-08T02:02:25.347Z,101837.56
2023-07-08T02:02:37.988Z,101839.41
2023-07-08T02:02:51.909Z,101836.72
2023-07-08T02:03:04.854Z,101835.84
2023-07-08T02:03:18.538Z,101842.13
2023-07-08T02:03:31.455Z,101835.84
2023-07-08T02:03:45.313Z,101836.00
2023-07-08T02:03:58.328Z,101843.94
2023-07-08T02:04:10.851Z,101834.13
2023-07-08T02:04:24.869Z,101834.13
2023-07-08T02:04:37.409Z,101838.69
2023-07-08T02:04:49.941Z,101838.69
2023-07-08T02:05:03.506Z,101841.38
2023-07-08T02:05:16.449Z,101838.69
2023-07-08T02:05:29.094Z,101846.78
2023-07-08T02:05:41.686Z,101849.50
2023-07-08T02:05:54.575Z,101842.25
2023-07-08T02:06:08.174Z,101844.09
2023-07-08T02:06:20.765Z,101845.91
2023-07-08T02:06:34.271Z,101844.22
2023-07-08T02:06:52.469Z,101842.38
2023-07-08T02:07:05.911Z,101851.47
2023-07-08T02:07:19.838Z,101846.06
2023-07-08T02:07:32.404Z,101838.69
2023-07-08T02:07:44.943Z,101846.91
2023-07-08T02:07:57.555Z,101845.06
2023-07-08T02:08:10.565Z,101841.38
2023-07-08T02:08:24.615Z,101843.22
2023-07-08T02:08:37.164Z,101846.91
2023-07-08T02:08:51.266Z,101840.50
2023-07-08T02:09:04.151Z,101848.75
2023-07-08T02:09:16.672Z,101846.06
2023-07-08T02:09:29.324Z,101839.78
2023-07-08T02:09:41.934Z,101848.75
2023-07-08T02:09:54.508Z,101849.72
2023-07-08T02:10:08.193Z,101844.34
2023-07-08T02:10:20.735Z,101849.72
2023-07-08T02:10:34.447Z,101848.03
2023-07-08T02:10:51.653Z,101852.44
2023-07-08T02:11:04.390Z,101848.03
2023-07-08T02:11:16.913Z,101848.88
2023-07-08T02:11:29.467Z,101854.28
2023-07-08T02:11:42.010Z,101850.72
2023-07-08T02:11:55.130Z,101854.28
2023-07-08T02:12:08.336Z,101846.19
2023-07-08T02:12:21.879Z,101849.88
2023-07-08T02:12:34.395Z,101850.72
2023-07-08T02:12:46.955Z,101851.59
2023-07-08T02:12:59.527Z,101849.72
2023-07-08T02:13:12.248Z,101854.28
2023-07-08T02:13:25.996Z,101850.72
2023-07-08T02:13:38.720Z,101853.44
2023-07-08T02:13:51.507Z,101854.28
2023-07-08T02:14:05.018Z,101852.59
2023-07-08T02:14:18.724Z,101850.84
2023-07-08T02:14:31.346Z,101854.56
2023-07-08T02:14:43.992Z,101850.13
2023-07-08T02:14:56.588Z,101859.22
2023-07-08T02:15:11.090Z,101850.25
2023-07-08T02:15:23.806Z,101862.06
2023-07-08T02:15:36.474Z,101852.22
2023-07-08T02:15:49.230Z,101853.22
2023-07-08T02:16:03.100Z,101852.38
2023-07-08T02:16:15.704Z,101855.09
2023-07-08T02:16:28.326Z,101860.59
2023-07-08T02:16:40.979Z,101855.19
2023-07-08T02:16:53.626Z,101850.81
2023-07-08T02:17:06.776Z,101857.06
2023-07-08T02:17:19.357Z,101846.38
2023-07-08T02:17:31.998Z,101857.19
2023-07-08T02:17:44.661Z,101847.38
2023-07-08T02:17:58.234Z,101859.88
2023-07-08T02:18:10.832Z,101851.91
2023-07-08T02:18:26.143Z,101858.19
2023-07-08T02:18:38.808Z,101859.16
2023-07-08T02:18:51.395Z,101860.00
2023-07-08T02:19:04.020Z,101858.19
2023-07-08T02:19:16.584Z,101851.06
2023-07-08T02:19:30.131Z,101854.75
2023-07-08T02:19:42.967Z,101854.75
2023-07-08T02:19:55.522Z,101858.41
2023-07-08T02:20:09.830Z,101854.03
2023-07-08T02:20:23.008Z,101854.03
2023-07-08T02:20:35.543Z,101850.47
2023-07-08T02:20:48.636Z,101862.13
2023-07-08T02:21:01.432Z,101858.56
2023-07-08T02:21:14.268Z,101856.00
2023-07-08T02:21:32.038Z,101860.38
2023-07-08T02:21:44.619Z,101856.97
2023-07-08T02:21:57.189Z,101855.16
2023-07-08T02:22:09.742Z,101861.41
2023-07-08T02:22:23.830Z,101854.28
2023-07-08T02:22:37.694Z,101859.66
2023-07-08T02:22:50.303Z,101856.97
2023-07-08T02:23:03.967Z,101856.97
2023-07-08T02:23:16.796Z,101854.41
2023-07-08T02:23:29.405Z,101856.13
2023-07-08T02:23:42.304Z,101854.41
2023-07-08T02:23:55.744Z,101854.41
2023-07-08T02:24:09.013Z,101861.50
2023-07-08T02:24:23.300Z,101860.66
2023-07-08T02:24:36.969Z,101855.28
2023-07-08T02:24:49.622Z,101859.81
2023-07-08T02:25:02.140Z,101860.66
2023-07-08T02:25:14.731Z,101857.97
2023-07-08T02:25:27.491Z,101855.28
2023-07-08T02:25:40.050Z,101856.97
2023-07-08T02:25:53.405Z,101860.66
2023-07-08T02:26:07.009Z,101855.28
2023-07-08T02:26:19.554Z,101854.41
2023-07-08T02:26:33.203Z,101858.81
2023-07-08T02:26:48.274Z,101853.41
2023-07-08T02:27:00.939Z,101854.28
2023-07-08T02:27:13.609Z,101857.97
2023-07-08T02:27:26.228Z,101857.97
2023-07-08T02:27:39.613Z,101858.94
2023-07-08T02:27:53.562Z,101860.66
2023-07-08T02:28:07.197Z,101859.66
2023-07-08T02:28:19.904Z,101855.28
2023-07-08T02:28:32.483Z,101859.66
2023-07-08T02:28:45.021Z,101856.97
2023-07-08T02:28:57.560Z,101862.38
2023-07-08T02:29:10.137Z,101863.25
2023-07-08T02:29:22.930Z,101858.69
2023-07-08T02:29:36.510Z,101862.38
2023-07-08T02:29:49.108Z,101857.84
2023-07-08T02:30:01.840Z,101854.28
2023-07-08T02:30:14.418Z,101862.25
2023-07-08T02:30:27.709Z,101864.09
2023-07-08T02:30:42.082Z,101863.25
2023-07-08T02:30:54.614Z,101862.38
2023-07-08T02:31:08.035Z,101861.50
2023-07-08T02:31:22.226Z,101866.06
2023-07-08T02:31:35.242Z,101860.66
2023-07-08T02:31:48.574Z,101864.34
2023-07-08T02:32:01.268Z,101858.94
2023-07-08T02:32:13.834Z,101858.94
2023-07-08T02:32:26.455Z,101858.94
2023-07-08T02:32:40.237Z,101865.34
2023-07-08T02:32:58.749Z,101868.03
2023-07-08T02:33:11.446Z,101861.91
2023-07-08T02:33:33.726Z,101860.91
2023-07-08T02:33:46.414Z,101865.44
2023-07-08T02:33:59.004Z,101865.44
2023-07-08T02:34:11.944Z,101867.31
2023-07-08T02:34:24.713Z,101864.59
2023-07-08T02:34:37.374Z,101865.59
2023-07-08T02:34:53.241Z,101861.19
2023-07-08T02:35:06.793Z,101866.56
2023-07-08T02:35:19.497Z,101871.97
2023-07-08T02:35:32.356Z,101864.00
2023-07-08T02:35:45.669Z,101863.16
2023-07-08T02:35:58.233Z,101865.84
2023-07-08T02:36:10.796Z,101867.69
2023-07-08T02:36:23.477Z,101858.75
2023-07-08T02:36:37.807Z,101869.53
2023-07-08T02:36:50.369Z,101866.84
2023-07-08T02:37:03.054Z,101858.75
2023-07-08T02:37:16.178Z,101866.84
2023-07-08T02:37:30.132Z,101864.28
2023-07-08T02:37:42.718Z,101870.50
2023-07-08T02:37:55.790Z,101870.50
2023-07-08T02:38:08.486Z,101859.84
2023-07-08T02:38:22.017Z,101862.53
2023-07-08T02:38:34.643Z,101864.41
2023-07-08T02:38:47.280Z,101866.25
2023-07-08T02:38:59.812Z,101861.69
2023-07-08T02:39:12.642Z,101861.84
2023-07-08T02:39:25.438Z,101866.25
2023-07-08T02:39:37.992Z,101866.31
2023-07-08T02:39:50.544Z,101869.94
2023-07-08T02:40:03.446Z,101863.63
2023-07-08T02:40:17.200Z,101869.03
2023-07-08T02:40:30.018Z,101861.09
2023-07-08T02:40:44.298Z,101865.47
2023-07-08T02:40:57.164Z,101866.47
2023-07-08T02:41:09.895Z,101868.19
2023-07-08T02:41:22.502Z,101861.94
2023-07-08T02:41:35.034Z,101862.78
2023-07-08T02:41:47.607Z,101865.47
2023-07-08T02:42:02.153Z,101869.03
2023-07-08T02:42:14.736Z,101860.22
2023-07-08T02:42:27.553Z,101867.31
2023-07-08T02:42:40.093Z,101867.31
2023-07-08T02:42:52.736Z,101865.59
2023-07-08T02:43:05.398Z,101871.88
2023-07-08T02:43:17.978Z,101863.78
2023-07-08T02:43:30.778Z,101866.47
2023-07-08T02:43:44.374Z,101860.22
2023-07-08T02:43:56.976Z,101864.75
2023-07-08T02:44:09.558Z,101855.81
2023-07-08T02:44:22.090Z,101870.16
2023-07-08T02:44:34.622Z,101863.91
2023-07-08T02:44:47.229Z,101864.75
2023-07-08T02:44:59.761Z,101858.50
2023-07-08T02:45:13.369Z,101863.06
2023-07-08T02:45:25.922Z,101853.97